Latest Weather Observations for Cessnock Airport

IDN60801

Issued at 10:05 am EST Wednesday 1 October 2014 (issued every 30 minutes, with the page automatically refreshed every 10 minutes)

About weather observations | Map of weather stations | Latest weather observations for NSW | Other Formats
Station Details ID: 061260 Name: CESSNOCK AIRPORT AWS Lat: -32.79 Lon: 151.34 Height: 61.0 m
Data from the previous 72 hours. | See also: Recent months at Cessnock Airport
Date/Time
EST
Temp
°C
App
Temp
°C
Dew
Point
Rel
Hum
%
Delta-T
°C
Wind Press
QNH
hPa
Press
MSL
hPa
Rain
since 9 am
mm
Dir
 
Spd
km/h
Gust
km/h
Spd
kts
Gust
kts
01/10:00am 20.0 14.4 -3.0 21 9.6 S 17 24 9 13 1017.3 1017.2 0.0
01/09:30am 20.2 14.0 -2.8 21 9.6 SW 20 30 11 16 1017.0 1017.0 0.0
01/09:00am 19.6 13.1 -2.7 22 9.3 SSW 22 35 12 19 1016.5 1016.5 0.0
01/08:30am 20.5 15.1 -1.3 23 9.4 WSW 17 22 9 12 1016.1 1016.1 0.0
01/08:00am 20.1 14.2 -0.5 25 9.0 WSW 20 32 11 17 1015.5 1015.5 0.0
01/07:30am 20.3 15.4 -0.3 25 9.1 W 15 26 8 14 1014.8 1014.8 0.0
01/07:00am 20.1 16.0 2.0 30 8.3 W 13 17 7 9 1014.5 1014.5 0.0
01/06:30am 19.7 14.4 1.7 30 8.2 W 19 26 10 14 1014.0 1014.0 0.0
01/06:00am 20.0 14.8 2.4 31 8.2 W 19 30 10 16 1013.5 1013.5 0.0
01/05:30am 20.1 15.9 1.5 29 8.5 SSW 13 22 7 12 1012.5 1012.4 0.0
01/05:00am 21.0 15.6 2.3 29 8.7 SW 20 35 11 19 1011.5 1011.4 0.0
01/04:42am 19.6 15.5 2.5 32 7.9 WSW 13 20 7 11 1010.7 1010.6 0.0
01/04:30am 14.6 13.1 4.9 52 4.5 SE 2 7 1 4 1010.6 1010.5 0.0
01/04:00am 16.1 12.9 5.1 48 5.2 NNE 11 15 6 8 1009.6 1009.5 0.0
01/03:55am 16.4 12.7 4.4 45 5.6 NNE 13 17 7 9 1009.5 1009.4 0.0
01/03:30am 21.5 17.4 0.1 24 9.6 WSW 11 15 6 8 1009.0 1008.9 0.0
01/03:00am 24.2 19.1 0.5 21 11.0 W 17 28 9 15 1008.4 1008.3 0.0
01/02:50am 22.1 19.3 3.3 29 9.1 WSW 7 35 4 19 1008.5 1008.4 0.0
01/02:30am 17.1 14.9 5.1 45 5.8 WSW 6 9 3 5 1008.2 1008.1 0.0
01/02:26am 16.2 13.7 3.9 44 5.7 WNW 6 11 3 6 1008.1 1008.0 0.0
01/02:00am 21.2 17.8 3.9 32 8.4 NNW 11 15 6 8 1007.7 1007.6 0.0
01/01:30am 22.0 18.2 4.1 31 8.7 NNW 13 20 7 11 1007.9 1007.8 0.0
01/01:00am 22.0 18.2 4.1 31 8.7 NNW 13 19 7 10 1008.0 1007.9 0.0
01/12:30am 21.7 18.6 5.6 35 8.1 N 11 15 6 8 1008.2 1008.1 0.0
01/12:00am 20.7 17.7 7.7 43 6.7 N 13 17 7 9 1008.2 1008.1 0.0
 
Date/Time
EST
Temp
°C
App
Temp
°C
Dew
Point
Rel
Hum
%
Delta-T
°C
Wind Press
QNH
hPa
Press
MSL
hPa
Rain
since 9 am
mm
Dir
 
Spd
km/h
Gust
km/h
Spd
kts
Gust
kts
30/11:30pm 18.0 14.1 8.6 54 4.9 N 19 24 10 13 1008.3 1008.2 0.0
30/11:00pm 16.5 14.5 8.5 59 4.1 N 9 11 5 6 1008.5 1008.4 0.0
30/10:30pm 15.8 14.1 8.5 62 3.7 NNE 7 11 4 6 1008.7 1008.6 0.0
30/10:00pm 16.6 14.6 10.2 66 3.4 NNE 11 13 6 7 1008.8 1008.7 0.0
30/09:30pm 16.6 15.4 9.5 63 3.7 NNE 6 7 3 4 1009.0 1008.9 0.0
30/09:00pm 18.2 16.5 9.8 58 4.5 N 9 13 5 7 1009.2 1009.1 0.0
30/08:30pm 17.5 17.1 9.7 60 4.1 NE 2 9 1 5 1009.7 1009.6 0.0
30/08:00pm 18.4 18.2 8.9 54 5.0 CALM 0 0 0 0 1009.8 1009.7 0.0
30/07:30pm 19.8 19.2 7.5 45 6.3 CALM 0 0 0 0 1009.8 1009.7 0.0
30/07:00pm 21.2 20.1 7.1 40 7.2 NW 2 7 1 4 1009.6 1009.5 0.0
30/06:30pm 24.1 22.8 5.9 31 9.3 NW 2 7 1 4 1009.6 1009.5 0.0
30/06:00pm 27.2 24.1 5.5 25 11.2 NW 11 17 6 9 1009.5 1009.4 0.0
30/05:30pm 28.4 25.1 6.5 25 11.6 NNW 13 20 7 11 1009.2 1009.1 0.0
30/05:00pm 29.5 25.4 6.2 23 12.4 NNW 17 28 9 15 1009.4 1009.3 0.0
30/04:30pm 30.0 25.0 6.6 23 12.5 N 22 37 12 20 1009.2 1009.1 0.0
30/04:00pm 30.9 25.3 5.3 20 13.5 NNW 24 41 13 22 1009.4 1009.3 0.0
30/03:49pm 31.0 24.8 6.1 21 13.3 N 28 48 15 26 1009.4 1009.3 0.0
30/03:30pm 30.5 25.2 7.0 23 12.7 NNW 24 39 13 21 1009.7 1009.6 0.0
30/03:00pm 29.5 25.0 6.8 24 12.2 NNW 20 30 11 16 1010.1 1010.0 0.0
30/02:30pm 29.9 24.9 6.5 23 12.5 NNW 22 35 12 19 1010.4 1010.3 0.0
30/02:00pm 29.8 24.8 6.5 23 12.5 NNW 22 35 12 19 1010.8 1010.7 0.0
30/01:30pm 29.6 23.8 6.3 23 12.4 N 26 43 14 23 1011.2 1011.1 0.0
30/01:00pm 31.3 25.4 5.7 20 13.6 NW 26 43 14 23 1011.7 1011.6 0.0
30/12:46pm 30.5 24.4 6.4 22 12.9 NNW 28 46 15 25 1011.7 1011.6 0.0
30/12:30pm 29.9 23.9 5.2 21 12.9 NW 26 44 14 24 1012.1 1012.0 0.0
30/12:00pm 29.6 24.9 9.2 28 11.4 NNW 24 41 13 22 1012.2 1012.1 0.0
30/11:30am 28.1 22.4 8.4 29 10.8 NW 28 41 15 22 1012.6 1012.5 0.0
30/11:00am 27.1 22.3 7.5 29 10.5 NW 22 37 12 20 1013.1 1013.0 0.0
30/10:30am 27.4 23.1 7.8 29 10.6 NNW 20 35 11 19 1013.6 1013.6 0.0
30/10:00am 26.9 21.6 6.9 28 10.6 NW 24 35 13 19 1013.9 1013.9 0.0
30/09:30am 26.6 22.2 7.6 30 10.2 NW 20 33 11 18 1014.2 1014.2 0.0
30/09:00am 26.2 21.9 6.8 29 10.2 NNW 19 28 10 15 1014.4 1014.4 0.0
30/08:30am 25.2 21.3 7.3 32 9.4 NNW 17 24 9 13 1014.4 1014.4 0.0
30/08:00am 20.9 19.2 11.3 54 5.3 NE 11 13 6 7 1014.5 1014.5 0.0
30/07:30am 18.6 17.0 10.2 58 4.5 ENE 9 11 5 6 1014.6 1014.6 0.0
30/07:00am 18.2 15.3 9.8 58 4.5 NNE 15 20 8 11 1014.2 1014.2 0.0
30/06:30am 18.0 15.5 9.6 58 4.4 N 13 17 7 9 1014.2 1014.2 0.0
30/06:00am 15.7 14.6 10.7 72 2.7 E 7 9 4 5 1014.1 1014.1 0.0
30/05:30am 14.5 13.4 10.5 77 2.1 NNE 7 13 4 7 1013.9 1013.9 0.0
30/05:00am 13.6 11.9 10.0 79 1.9 S 9 11 5 6 1013.8 1013.8 0.0
30/04:30am 12.7 11.6 9.9 83 1.4 ESE 6 7 3 4 1013.7 1013.7 0.0
30/04:00am 12.0 10.6 9.0 82 1.5 SE 6 7 3 4 1013.6 1013.6 0.0
30/03:30am 11.5 10.0 8.4 81 1.5 SSE 6 7 3 4 1013.7 1013.7 0.0
30/03:00am 11.3 9.7 7.8 79 1.7 SE 6 7 3 4 1013.8 1013.8 0.0
30/02:30am 11.7 10.1 8.2 79 1.7 SE 6 9 3 5 1014.1 1014.1 0.0
30/02:00am 12.5 11.8 8.6 77 1.9 ESE 2 7 1 4 1014.2 1014.2 0.0
30/01:30am 12.9 11.8 8.6 75 2.2 ESE 4 7 2 4 1014.4 1014.4 0.0
30/01:00am 13.4 12.9 8.0 70 2.7 CALM 0 6 0 3 1014.7 1014.7 0.0
30/12:30am 14.5 14.0 7.8 64 3.3 CALM 0 0 0 0 1014.9 1014.9 0.0
30/12:00am 16.7 15.0 7.6 55 4.6 NE 6 7 3 4 1015.0 1015.0 0.0
 
Date/Time
EST
Temp
°C
App
Temp
°C
Dew
Point
Rel
Hum
%
Delta-T
°C
Wind Press
QNH
hPa
Press
MSL
hPa
Rain
since 9 am
mm
Dir
 
Spd
km/h
Gust
km/h
Spd
kts
Gust
kts
29/11:30pm 17.7 15.5 8.0 53 5.0 NNE 9 11 5 6 1015.2 1015.2 0.0
29/11:00pm 18.3 16.2 8.3 52 5.2 NNE 9 11 5 6 1015.3 1015.3 0.0
29/10:30pm 18.0 14.9 8.8 55 4.8 NNE 15 15 8 8 1015.3 1015.3 0.0
29/10:00pm 18.5 15.4 8.7 53 5.1 N 15 15 8 8 1015.5 1015.5 0.0
29/09:30pm 18.9 16.9 8.6 51 5.4 N 9 13 5 7 1015.3 1015.3 0.0
29/09:00pm 22.5 19.9 6.3 35 8.3 NNW 9 13 5 7 1015.1 1015.1 0.0
29/08:30pm 23.6 20.7 6.4 33 8.8 NNW 11 15 6 8 1015.0 1015.0 0.0
29/08:00pm 24.2 21.2 6.0 31 9.3 NW 11 15 6 8 1014.8 1014.8 0.0
29/07:30pm 24.2 21.2 6.0 31 9.3 NW 11 17 6 9 1014.4 1014.4 0.0
29/07:00pm 24.6 21.3 6.4 31 9.4 NW 13 20 7 11 1014.0 1014.0 0.0
29/06:30pm 24.8 21.8 6.1 30 9.6 NNW 11 20 6 11 1013.7 1013.7 0.0
29/06:00pm 26.3 23.0 6.3 28 10.4 NNW 13 19 7 10 1013.3 1013.3 0.0
29/05:30pm 26.9 23.6 6.3 27 10.8 NNW 13 19 7 10 1013.0 1012.9 0.0
29/05:00pm 28.2 24.5 6.3 25 11.6 NNW 15 24 8 13 1012.6 1012.5 0.0
29/04:30pm 28.7 24.7 6.7 25 11.7 NNW 17 26 9 14 1012.4 1012.3 0.0
29/04:00pm 29.0 24.2 5.8 23 12.2 N 20 32 11 17 1012.3 1012.2 0.0
29/03:30pm 29.3 24.2 6.0 23 12.3 N 22 32 12 17 1012.2 1012.1 0.0
29/03:00pm 29.7 24.3 4.4 20 13.0 N 22 33 12 18 1012.2 1012.1 0.0
29/02:30pm 29.7 24.7 4.4 20 13.0 NNW 20 30 11 16 1012.3 1012.2 0.0
29/02:00pm 29.6 25.3 6.9 24 12.2 NW 19 28 10 15 1012.6 1012.5 0.0
29/01:30pm 28.7 24.1 5.5 23 12.1 NNW 19 35 10 19 1013.2 1013.1 0.0
29/01:00pm 28.7 24.2 6.1 24 11.9 NNW 19 30 10 16 1013.5 1013.5 0.0
29/12:30pm 27.6 22.6 4.6 23 11.7 NNW 20 32 11 17 1014.0 1014.0 0.0
29/12:00pm 27.2 21.6 3.7 22 11.8 NNW 22 32 12 17 1014.3 1014.3 0.0
29/11:30am 27.4 23.1 6.8 27 10.9 NW 19 35 10 19 1014.7 1014.7 0.0
29/11:00am 26.5 19.9 4.3 24 11.2 NNW 28 41 15 22 1015.0 1015.0 0.0
29/10:30am 26.1 20.8 5.1 26 10.7 NNW 22 33 12 18 1015.3 1015.3 0.0
29/10:00am 25.0 20.2 5.7 29 9.9 NNW 20 30 11 16 1015.4 1015.4 0.0
29/09:30am 23.9 19.1 7.5 35 8.6 NW 22 33 12 18 1015.7 1015.7 0.0
29/09:00am 22.7 19.1 6.9 36 8.1 NNW 15 26 8 14 1015.9 1015.9 0.0
29/08:30am 21.1 17.4 8.0 43 6.8 NNW 17 24 9 13 1015.8 1015.8 0.0
29/08:00am 18.9 16.2 9.1 53 5.1 N 13 20 7 11 1015.8 1015.8 0.0
29/07:30am 13.8 14.7 12.9 94 0.5 CALM 0 0 0 0 1016.1 1016.1 0.0
29/07:00am 10.6 10.8 10.6 100 0.0 CALM 0 0 0 0 1016.3 1016.3 0.0
29/06:30am 8.7 8.4 8.7 100 0.0 CALM 0 0 0 0 1016.2 1016.2 0.0
29/06:00am 6.9 6.2 6.9 100 0.0 CALM 0 0 0 0 1016.0 1016.0 0.0
29/05:30am 6.8 5.3 6.8 100 0.0 S 4 7 2 4 1015.8 1015.8 0.0
29/05:00am 7.4 6.8 7.4 100 0.0 CALM 0 0 0 0 1015.6 1015.6 0.0
29/04:30am 7.5 6.9 7.5 100 0.0 CALM 0 0 0 0 1015.5 1015.5 0.0
29/04:00am 7.5 5.2 7.5 100 0.0 SSE 9 15 5 8 1015.2 1015.2 0.0
29/03:30am 6.7 5.9 6.7 100 0.0 CALM 0 0 0 0 1015.2 1015.2 0.0
29/03:00am 7.5 6.2 7.5 100 0.0 S 4 7 2 4 1015.6 1015.6 0.0
29/02:30am 7.5 6.5 7.5 100 0.0 NNW 2 6 1 3 1015.5 1015.5 0.0
29/02:00am 7.5 5.8 7.4 99 0.0 NE 6 9 3 5 1016.0 1016.0 0.0
29/01:30am 8.2 7.8 8.2 100 0.0 CALM 0 0 0 0 1016.5 1016.5 0.0
29/01:00am 8.7 8.4 8.6 99 0.0 CALM 0 0 0 0 1016.7 1016.7 0.0
29/12:30am 8.7 7.5 7.9 95 0.4 WSW 4 7 2 4 1017.0 1017.0 0.0
29/12:00am 10.1 8.8 9.9 99 0.1 SW 7 9 4 5 1017.0 1017.0 0.0
 
Date/Time
EST
Temp
°C
App
Temp
°C
Dew
Point
Rel
Hum
%
Delta-T
°C
Wind Press
QNH
hPa
Press
MSL
hPa
Rain
since 9 am
mm
Dir
 
Spd
km/h
Gust
km/h
Spd
kts
Gust
kts
28/11:30pm 9.6 8.7 9.1 97 0.2 SW 4 9 2 5 1017.2 1017.2 0.0
28/11:00pm 10.2 9.4 9.6 96 0.3 SW 4 7 2 4 1017.3 1017.3 0.0
28/10:30pm 10.7 9.2 9.1 90 0.8 SW 7 9 4 5 1017.4 1017.4 0.0
28/10:00pm 11.7 10.0 9.8 88 1.0 SW 9 13 5 7 1017.3 1017.3 0.0
28/09:30pm 11.9 10.0 9.1 83 1.4 SW 9 9 5 5 1017.2 1017.2 0.0
28/09:00pm 12.2 10.7 9.2 82 1.5 SSW 7 9 4 5 1017.3 1017.3 0.0
28/08:30pm 12.6 10.7 8.9 78 1.9 SSW 9 11 5 6 1017.3 1017.3 0.0
28/08:00pm 14.1 11.4 9.1 72 2.5 SW 13 15 7 8 1017.0 1017.0 0.0
28/07:30pm 16.6 15.9 10.0 65 3.5 SW 4 9 2 5 1016.7 1016.7 0.0
28/07:00pm 18.2 15.5 10.3 60 4.2 ENE 15 20 8 11 1016.4 1016.4 0.0
28/06:30pm 18.6 15.9 10.4 59 4.4 ENE 15 20 8 11 1016.3 1016.3 0.0
28/06:00pm 20.4 18.1 4.8 36 7.6 N 6 6 3 3 1016.3 1016.3 0.0
28/05:30pm 22.7 20.2 3.8 29 9.2 N 6 9 3 5 1016.1 1016.1 0.0
28/05:00pm 23.6 20.6 4.0 28 9.6 N 9 11 5 6 1016.1 1016.1 0.0
28/04:30pm 24.0 20.2 3.9 27 9.9 N 13 17 7 9 1016.1 1016.1 0.0
28/04:00pm 24.0 19.6 4.9 29 9.6 N 17 20 9 11 1016.2 1016.2 0.0
28/03:30pm 23.8 20.4 5.7 31 9.2 N 13 20 7 11 1016.4 1016.4 0.0
28/03:00pm 24.0 20.6 5.8 31 9.3 NNE 13 19 7 10 1016.7 1016.7 0.0
28/02:30pm 23.9 20.8 7.1 34 8.8 NW 13 20 7 11 1017.0 1017.0 0.0
28/02:00pm 23.4 18.9 4.4 29 9.4 N 17 24 9 13 1017.6 1017.6 0.0
28/01:30pm 23.9 20.6 4.8 29 9.6 NNW 11 20 6 11 1018.0 1018.0 0.0
28/01:00pm 22.8 19.4 5.7 33 8.6 NW 13 19 7 10 1018.6 1018.6 0.0
28/12:30pm 22.7 19.7 9.1 42 7.3 NNE 15 22 8 12 1019.2 1019.2 0.0
28/12:00pm 21.9 18.4 7.0 38 7.6 NNE 15 28 8 15 1019.8 1019.8 0.0
28/11:30am 21.1 19.0 9.7 48 6.1 N 11 20 6 11 1020.3 1020.3 0.0
28/11:00am 20.6 18.6 10.1 51 5.7 N 11 20 6 11 1020.9 1020.9 0.0
28/10:30am 19.7 17.7 10.1 54 5.2 N 11 19 6 10 1021.3 1021.3 0.0

Other Formats:

Comma delimited format used in spreadsheet applications
http://www.bom.gov.au/fwo/IDN60801/IDN60801.95771.axf

JavaScript Object Notation format (JSON) in row-major order
http://www.bom.gov.au/fwo/IDN60801/IDN60801.95771.json